sensor_id;sensor_type;location;lat;lon;timestamp;pressure;altitude;pressure_sealevel;temperature;humidity
9746;BME280;4912;50.836;12.958;2024-02-26T00:01:23;96433.00;;;7.22;80.11
9746;BME280;4912;50.836;12.958;2024-02-26T00:03:54;96436.53;;;7.23;80.82
9746;BME280;4912;50.836;12.958;2024-02-26T00:06:29;96440.03;;;7.23;80.41
9746;BME280;4912;50.836;12.958;2024-02-26T00:09:00;96440.03;;;7.23;79.78
9746;BME280;4912;50.836;12.958;2024-02-26T00:11:34;96439.13;;;7.12;81.04
9746;BME280;4912;50.836;12.958;2024-02-26T00:14:06;96438.44;;;7.17;81.35
9746;BME280;4912;50.836;12.958;2024-02-26T00:16:40;96436.22;;;7.21;81.44
9746;BME280;4912;50.836;12.958;2024-02-26T00:19:12;96429.50;;;7.22;81.45
9746;BME280;4912;50.836;12.958;2024-02-26T00:21:46;96419.19;;;7.17;81.38
9746;BME280;4912;50.836;12.958;2024-02-26T00:24:17;96421.63;;;7.15;81.76
9746;BME280;4912;50.836;12.958;2024-02-26T00:26:48;96417.38;;;7.14;81.70
9746;BME280;4912;50.836;12.958;2024-02-26T00:29:22;96409.25;;;7.05;81.86
9746;BME280;4912;50.836;12.958;2024-02-26T00:31:52;96414.13;;;6.95;82.56
9746;BME280;4912;50.836;12.958;2024-02-26T00:34:23;96406.44;;;6.99;82.44
9746;BME280;4912;50.836;12.958;2024-02-26T00:36:57;96402.44;;;7.00;82.22
9746;BME280;4912;50.836;12.958;2024-02-26T00:39:29;96399.41;;;6.98;82.23
9746;BME280;4912;50.836;12.958;2024-02-26T00:42:00;96387.94;;;6.99;82.23
9746;BME280;4912;50.836;12.958;2024-02-26T00:44:31;96388.69;;;7.00;82.28
9746;BME280;4912;50.836;12.958;2024-02-26T00:47:02;96401.59;;;6.94;82.86
9746;BME280;4912;50.836;12.958;2024-02-26T00:49:33;96396.03;;;6.88;83.33
9746;BME280;4912;50.836;12.958;2024-02-26T00:52:07;96392.78;;;6.90;83.35
9746;BME280;4912;50.836;12.958;2024-02-26T00:54:37;96401.31;;;6.92;82.95
9746;BME280;4912;50.836;12.958;2024-02-26T00:57:08;96400.28;;;6.89;83.34
9746;BME280;4912;50.836;12.958;2024-02-26T00:59:40;96393.84;;;6.92;82.94
9746;BME280;4912;50.836;12.958;2024-02-26T01:02:10;96390.78;;;6.90;83.36
9746;BME280;4912;50.836;12.958;2024-02-26T01:04:43;96387.03;;;6.88;83.62
9746;BME280;4912;50.836;12.958;2024-02-26T01:07:17;96379.25;;;6.86;84.18
9746;BME280;4912;50.836;12.958;2024-02-26T01:09:49;96378.69;;;6.82;84.78
9746;BME280;4912;50.836;12.958;2024-02-26T01:12:20;96361.69;;;6.84;85.01
9746;BME280;4912;50.836;12.958;2024-02-26T01:14:51;96378.41;;;6.80;85.13
9746;BME280;4912;50.836;12.958;2024-02-26T01:17:23;96368.63;;;6.79;85.13
9746;BME280;4912;50.836;12.958;2024-02-26T01:19:53;96364.88;;;6.77;85.73
9746;BME280;4912;50.836;12.958;2024-02-26T01:22:28;96363.63;;;6.78;85.45
9746;BME280;4912;50.836;12.958;2024-02-26T01:24:58;96357.84;;;6.76;86.05
9746;BME280;4912;50.836;12.958;2024-02-26T01:27:29;96354.13;;;6.79;86.23
9746;BME280;4912;50.836;12.958;2024-02-26T01:30:01;96356.88;;;6.79;86.21
9746;BME280;4912;50.836;12.958;2024-02-26T01:32:32;96354.91;;;6.79;86.18
9746;BME280;4912;50.836;12.958;2024-02-26T01:35:04;96345.44;;;6.80;86.22
9746;BME280;4912;50.836;12.958;2024-02-26T01:37:41;96348.94;;;6.81;86.10
9746;BME280;4912;50.836;12.958;2024-02-26T01:40:13;96344.66;;;6.80;86.08
9746;BME280;4912;50.836;12.958;2024-02-26T01:42:47;96342.53;;;6.69;86.76
9746;BME280;4912;50.836;12.958;2024-02-26T01:45:18;96330.56;;;6.72;86.78
9746;BME280;4912;50.836;12.958;2024-02-26T01:47:53;96331.06;;;6.71;87.10
9746;BME280;4912;50.836;12.958;2024-02-26T01:50:25;96322.31;;;6.72;87.13
9746;BME280;4912;50.836;12.958;2024-02-26T01:53:02;96323.34;;;6.75;87.02
9746;BME280;4912;50.836;12.958;2024-02-26T01:55:36;96324.41;;;6.77;86.84
9746;BME280;4912;50.836;12.958;2024-02-26T01:58:07;96320.59;;;6.75;86.71
9746;BME280;4912;50.836;12.958;2024-02-26T02:00:39;96327.16;;;6.77;86.90
9746;BME280;4912;50.836;12.958;2024-02-26T02:03:10;96321.91;;;6.79;86.73
9746;BME280;4912;50.836;12.958;2024-02-26T02:05:41;96315.13;;;6.75;86.97
9746;BME280;4912;50.836;12.958;2024-02-26T02:08:15;96319.16;;;6.79;86.80
9746;BME280;4912;50.836;12.958;2024-02-26T02:10:46;96310.31;;;6.70;87.31
9746;BME280;4912;50.836;12.958;2024-02-26T02:13:17;96309.91;;;6.77;87.11
9746;BME280;4912;50.836;12.958;2024-02-26T02:15:48;96313.66;;;6.79;86.96
9746;BME280;4912;50.836;12.958;2024-02-26T02:18:19;96310.44;;;6.81;86.64
9746;BME280;4912;50.836;12.958;2024-02-26T02:20:52;96312.91;;;6.79;86.79
9746;BME280;4912;50.836;12.958;2024-02-26T02:23:26;96319.63;;;6.78;86.26
9746;BME280;4912;50.836;12.958;2024-02-26T02:25:57;96312.44;;;6.80;86.00
9746;BME280;4912;50.836;12.958;2024-02-26T02:28:28;96317.66;;;6.78;84.30
9746;BME280;4912;50.836;12.958;2024-02-26T02:30:59;96312.16;;;6.78;84.11
9746;BME280;4912;50.836;12.958;2024-02-26T02:33:31;96317.38;;;6.76;84.11
9746;BME280;4912;50.836;12.958;2024-02-26T02:36:08;96316.56;;;6.70;84.23
9746;BME280;4912;50.836;12.958;2024-02-26T02:38:48;96319.97;;;6.65;84.34
9746;BME280;4912;50.836;12.958;2024-02-26T02:41:20;96316.47;;;6.65;84.11
9746;BME280;4912;50.836;12.958;2024-02-26T02:43:50;96324.72;;;6.65;83.23
9746;BME280;4912;50.836;12.958;2024-02-26T02:46:21;96321.88;;;6.59;83.39
9746;BME280;4912;50.836;12.958;2024-02-26T02:48:52;96323.59;;;6.56;85.44
9746;BME280;4912;50.836;12.958;2024-02-26T02:51:28;96325.88;;;6.43;87.01
9746;BME280;4912;50.836;12.958;2024-02-26T02:53:58;96328.16;;;6.45;87.73
9746;BME280;4912;50.836;12.958;2024-02-26T02:56:29;96330.63;;;6.43;88.30
9746;BME280;4912;50.836;12.958;2024-02-26T02:59:01;96327.22;;;6.48;88.49
9746;BME280;4912;50.836;12.958;2024-02-26T03:01:35;96333.34;;;6.57;88.30
9746;BME280;4912;50.836;12.958;2024-02-26T03:04:05;96326.13;;;6.60;87.60
9746;BME280;4912;50.836;12.958;2024-02-26T03:06:39;96331.38;;;6.58;88.63
9746;BME280;4912;50.836;12.958;2024-02-26T03:09:10;96331.91;;;6.62;88.44
9746;BME280;4912;50.836;12.958;2024-02-26T03:11:41;96335.72;;;6.65;87.95
9746;BME280;4912;50.836;12.958;2024-02-26T03:14:14;96331.53;;;6.69;87.48
9746;BME280;4912;50.836;12.958;2024-02-26T03:16:45;96343.19;;;6.64;85.02
9746;BME280;4912;50.836;12.958;2024-02-26T03:19:16;96338.63;;;6.61;84.65
9746;BME280;4912;50.836;12.958;2024-02-26T03:21:49;96339.03;;;6.54;83.98
9746;BME280;4912;50.836;12.958;2024-02-26T03:24:20;96329.22;;;6.47;83.91
9746;BME280;4912;50.836;12.958;2024-02-26T03:26:51;96331.59;;;6.40;85.25
9746;BME280;4912;50.836;12.958;2024-02-26T03:29:22;96332.59;;;6.42;86.35
9746;BME280;4912;50.836;12.958;2024-02-26T03:31:53;96339.16;;;6.45;86.25
9746;BME280;4912;50.836;12.958;2024-02-26T03:34:23;96332.44;;;6.46;87.43
9746;BME280;4912;50.836;12.958;2024-02-26T03:36:57;96331.97;;;6.47;88.07
9746;BME280;4912;50.836;12.958;2024-02-26T03:39:28;96328.78;;;6.54;87.50
9746;BME280;4912;50.836;12.958;2024-02-26T03:41:59;96333.72;;;6.65;86.69
9746;BME280;4912;50.836;12.958;2024-02-26T03:44:29;96333.97;;;6.67;86.23
9746;BME280;4912;50.836;12.958;2024-02-26T03:47:00;96329.16;;;6.62;84.82
9746;BME280;4912;50.836;12.958;2024-02-26T03:49:31;96330.31;;;6.55;86.07
9746;BME280;4912;50.836;12.958;2024-02-26T03:52:04;96328.03;;;6.54;86.63
9746;BME280;4912;50.836;12.958;2024-02-26T03:54:35;96340.06;;;6.56;86.61
9746;BME280;4912;50.836;12.958;2024-02-26T03:57:06;96326.63;;;6.58;85.49
9746;BME280;4912;50.836;12.958;2024-02-26T03:59:38;96331.53;;;6.54;85.07
9746;BME280;4912;50.836;12.958;2024-02-26T04:02:09;96331.75;;;6.51;85.39
9746;BME280;4912;50.836;12.958;2024-02-26T04:04:40;96325.03;;;6.52;86.01
9746;BME280;4912;50.836;12.958;2024-02-26T04:07:13;96332.13;;;6.58;86.07
9746;BME280;4912;50.836;12.958;2024-02-26T04:09:44;96332.13;;;6.58;86.08
9746;BME280;4912;50.836;12.958;2024-02-26T04:12:20;96326.63;;;6.58;86.49
9746;BME280;4912;50.836;12.958;2024-02-26T04:14:53;96329.25;;;6.68;86.08
9746;BME280;4912;50.836;12.958;2024-02-26T04:17:24;96325.81;;;6.73;85.50
9746;BME280;4912;50.836;12.958;2024-02-26T04:19:55;96322.59;;;6.74;84.58
9746;BME280;4912;50.836;12.958;2024-02-26T04:22:28;96321.28;;;6.70;83.59
9746;BME280;4912;50.836;12.958;2024-02-26T04:24:59;96325.75;;;6.67;83.09
9746;BME280;4912;50.836;12.958;2024-02-26T04:27:30;96326.13;;;6.60;83.27
9746;BME280;4912;50.836;12.958;2024-02-26T04:30:01;96331.06;;;6.56;83.09
9746;BME280;4912;50.836;12.958;2024-02-26T04:32:33;96325.97;;;6.49;83.81
9746;BME280;4912;50.836;12.958;2024-02-26T04:35:05;96333.44;;;6.48;84.21
9746;BME280;4912;50.836;12.958;2024-02-26T04:37:42;96332.91;;;6.44;84.46
9746;BME280;4912;50.836;12.958;2024-02-26T04:40:13;96336.69;;;6.47;83.53
9746;BME280;4912;50.836;12.958;2024-02-26T04:42:43;96342.38;;;6.43;83.03
9746;BME280;4912;50.836;12.958;2024-02-26T04:45:17;96340.75;;;6.37;83.11
9746;BME280;4912;50.836;12.958;2024-02-26T04:47:48;96341.53;;;6.37;82.17
9746;BME280;4912;50.836;12.958;2024-02-26T04:50:19;96340.88;;;6.28;82.50
9746;BME280;4912;50.836;12.958;2024-02-26T04:52:52;96339.06;;;6.25;82.43
9746;BME280;4912;50.836;12.958;2024-02-26T04:55:23;96341.25;;;6.21;82.49
9746;BME280;4912;50.836;12.958;2024-02-26T04:57:54;96341.16;;;6.15;82.65
9746;BME280;4912;50.836;12.958;2024-02-26T05:00:25;96347.31;;;6.10;83.26
9746;BME280;4912;50.836;12.958;2024-02-26T05:02:55;96343.25;;;6.05;83.17
9746;BME280;4912;50.836;12.958;2024-02-26T05:05:27;96346.19;;;6.02;83.32
9746;BME280;4912;50.836;12.958;2024-02-26T05:08:00;96352.78;;;5.95;83.30
9746;BME280;4912;50.836;12.958;2024-02-26T05:10:31;96357.72;;;5.91;83.48
9746;BME280;4912;50.836;12.958;2024-02-26T05:13:06;96363.84;;;5.86;83.29
9746;BME280;4912;50.836;12.958;2024-02-26T05:15:37;96359.03;;;5.81;83.56
9746;BME280;4912;50.836;12.958;2024-02-26T05:18:08;96364.97;;;5.80;82.97
9746;BME280;4912;50.836;12.958;2024-02-26T05:20:39;96366.56;;;5.71;82.88
9746;BME280;4912;50.836;12.958;2024-02-26T05:23:14;96363.72;;;5.66;82.93
9746;BME280;4912;50.836;12.958;2024-02-26T05:25:48;96362.75;;;5.54;82.88
9746;BME280;4912;50.836;12.958;2024-02-26T05:28:19;96360.50;;;5.53;82.88
9746;BME280;4912;50.836;12.958;2024-02-26T05:30:50;96361.13;;;5.48;82.79
9746;BME280;4912;50.836;12.958;2024-02-26T05:33:21;96357.16;;;5.49;82.99
9746;BME280;4912;50.836;12.958;2024-02-26T05:35:52;96364.34;;;5.46;83.19
9746;BME280;4912;50.836;12.958;2024-02-26T05:38:26;96360.06;;;5.45;82.93
9746;BME280;4912;50.836;12.958;2024-02-26T05:40:56;96354.78;;;5.42;82.98
9746;BME280;4912;50.836;12.958;2024-02-26T05:43:27;96365.16;;;5.38;83.22
9746;BME280;4912;50.836;12.958;2024-02-26T05:45:58;96375.09;;;5.35;83.38
9746;BME280;4912;50.836;12.958;2024-02-26T05:48:29;96371.19;;;5.27;83.68
9746;BME280;4912;50.836;12.958;2024-02-26T05:51:00;96361.91;;;5.24;84.09
9746;BME280;4912;50.836;12.958;2024-02-26T05:53:33;96367.25;;;5.19;84.20
9746;BME280;4912;50.836;12.958;2024-02-26T05:56:04;96369.84;;;5.22;84.16
9746;BME280;4912;50.836;12.958;2024-02-26T05:58:41;96374.56;;;5.22;84.18
9746;BME280;4912;50.836;12.958;2024-02-26T06:01:14;96373.22;;;5.17;84.54
9746;BME280;4912;50.836;12.958;2024-02-26T06:03:45;96367.09;;;5.22;84.27
9746;BME280;4912;50.836;12.958;2024-02-26T06:06:17;96369.53;;;5.20;84.16
9746;BME280;4912;50.836;12.958;2024-02-26T06:08:53;96367.09;;;5.22;84.37
9746;BME280;4912;50.836;12.958;2024-02-26T06:11:21;96365.59;;;5.21;84.49
9746;BME280;4912;50.836;12.958;2024-02-26T06:13:51;96372.84;;;5.24;84.82
9746;BME280;4912;50.836;12.958;2024-02-26T06:16:22;96376.00;;;5.32;85.25
9746;BME280;4912;50.836;12.958;2024-02-26T06:18:53;96370.94;;;5.40;85.66
9746;BME280;4912;50.836;12.958;2024-02-26T06:21:24;96372.38;;;5.50;86.04
9746;BME280;4912;50.836;12.958;2024-02-26T06:23:57;96367.69;;;5.65;85.64
9746;BME280;4912;50.836;12.958;2024-02-26T06:26:28;96368.47;;;5.80;84.94
9746;BME280;4912;50.836;12.958;2024-02-26T06:28:56;96372.00;;;5.95;84.73
9746;BME280;4912;50.836;12.958;2024-02-26T06:31:27;96373.47;;;6.05;84.28
9746;BME280;4912;50.836;12.958;2024-02-26T06:33:57;96364.75;;;6.22;83.83
9746;BME280;4912;50.836;12.958;2024-02-26T06:36:28;96367.97;;;6.35;83.56
9746;BME280;4912;50.836;12.958;2024-02-26T06:39:02;96363.50;;;6.52;82.63
9746;BME280;4912;50.836;12.958;2024-02-26T06:41:33;96364.88;;;6.62;82.22
9746;BME280;4912;50.836;12.958;2024-02-26T06:44:04;96359.94;;;6.66;81.69
9746;BME280;4912;50.836;12.958;2024-02-26T06:46:35;96373.78;;;6.72;81.59
9746;BME280;4912;50.836;12.958;2024-02-26T06:49:05;96373.88;;;6.77;81.33
9746;BME280;4912;50.836;12.958;2024-02-26T06:51:39;96375.94;;;6.82;81.13
9746;BME280;4912;50.836;12.958;2024-02-26T06:54:12;96374.59;;;6.92;80.43
9746;BME280;4912;50.836;12.958;2024-02-26T06:56:43;96387.19;;;6.99;79.99
9746;BME280;4912;50.836;12.958;2024-02-26T06:59:16;96377.78;;;7.06;79.51
9746;BME280;4912;50.836;12.958;2024-02-26T07:01:47;96389.31;;;7.10;79.13
9746;BME280;4912;50.836;12.958;2024-02-26T07:04:18;96397.19;;;7.17;79.37
9746;BME280;4912;50.836;12.958;2024-02-26T07:06:48;96397.63;;;7.30;78.64
9746;BME280;4912;50.836;12.958;2024-02-26T07:09:22;96397.81;;;7.47;77.67
9746;BME280;4912;50.836;12.958;2024-02-26T07:11:53;96393.47;;;7.60;77.06
9746;BME280;4912;50.836;12.958;2024-02-26T07:14:27;96397.19;;;7.77;76.32
9746;BME280;4912;50.836;12.958;2024-02-26T07:17:00;96397.03;;;7.87;75.60
9746;BME280;4912;50.836;12.958;2024-02-26T07:19:31;96405.53;;;8.09;75.19
9746;BME280;4912;50.836;12.958;2024-02-26T07:22:01;96405.50;;;8.29;73.57
9746;BME280;4912;50.836;12.958;2024-02-26T07:24:35;96410.38;;;8.40;72.31
9746;BME280;4912;50.836;12.958;2024-02-26T07:27:05;96408.19;;;8.49;72.32
9746;BME280;4912;50.836;12.958;2024-02-26T07:29:36;96399.53;;;8.62;71.48
9746;BME280;4912;50.836;12.958;2024-02-26T07:32:07;96401.69;;;8.84;70.33
9746;BME280;4912;50.836;12.958;2024-02-26T07:34:37;96400.63;;;9.07;70.04
9746;BME280;4912;50.836;12.958;2024-02-26T07:37:09;96401.75;;;9.32;69.15
9746;BME280;4912;50.836;12.958;2024-02-26T07:39:42;96398.88;;;9.58;68.46
9746;BME280;4912;50.836;12.958;2024-02-26T07:42:13;96393.94;;;9.84;67.63
9746;BME280;4912;50.836;12.958;2024-02-26T07:44:43;96400.38;;;10.23;66.15
9746;BME280;4912;50.836;12.958;2024-02-26T07:47:14;96388.84;;;10.75;63.83
9746;BME280;4912;50.836;12.958;2024-02-26T07:49:45;96394.56;;;11.27;63.43
9746;BME280;4912;50.836;12.958;2024-02-26T07:52:15;96400.03;;;11.55;61.09
9746;BME280;4912;50.836;12.958;2024-02-26T07:54:49;96398.44;;;11.87;60.42
9746;BME280;4912;50.836;12.958;2024-02-26T07:57:19;96394.16;;;12.33;59.82
9746;BME280;4912;50.836;12.958;2024-02-26T07:59:50;96402.88;;;12.84;57.84
9746;BME280;4912;50.836;12.958;2024-02-26T08:02:21;96405.16;;;13.09;56.74
9746;BME280;4912;50.836;12.958;2024-02-26T08:04:52;96403.44;;;13.61;54.80
9746;BME280;4912;50.836;12.958;2024-02-26T08:07:22;96404.31;;;13.93;53.43
9746;BME280;4912;50.836;12.958;2024-02-26T08:09:56;96403.06;;;13.70;53.89
9746;BME280;4912;50.836;12.958;2024-02-26T08:12:26;96406.22;;;13.61;54.31
9746;BME280;4912;50.836;12.958;2024-02-26T08:14:57;96406.50;;;13.57;54.63
9746;BME280;4912;50.836;12.958;2024-02-26T08:17:28;96412.13;;;13.94;53.39
9746;BME280;4912;50.836;12.958;2024-02-26T08:20:00;96398.75;;;14.49;52.46
9746;BME280;4912;50.836;12.958;2024-02-26T08:22:31;96400.84;;;14.62;51.51
9746;BME280;4912;50.836;12.958;2024-02-26T08:25:05;96405.25;;;14.89;50.50
9746;BME280;4912;50.836;12.958;2024-02-26T08:27:37;96407.88;;;15.72;49.17
9746;BME280;4912;50.836;12.958;2024-02-26T08:30:13;96410.50;;;16.17;47.29
9746;BME280;4912;50.836;12.958;2024-02-26T08:32:45;96411.38;;;16.46;46.46
9746;BME280;4912;50.836;12.958;2024-02-26T08:35:19;96418.56;;;16.54;46.53
9746;BME280;4912;50.836;12.958;2024-02-26T08:37:49;96423.00;;;16.84;45.58
9746;BME280;4912;50.836;12.958;2024-02-26T08:40:23;96415.16;;;17.24;44.49
9746;BME280;4912;50.836;12.958;2024-02-26T08:42:53;96420.72;;;17.65;43.40
9746;BME280;4912;50.836;12.958;2024-02-26T08:45:25;96420.75;;;18.01;42.51
9746;BME280;4912;50.836;12.958;2024-02-26T08:47:56;96409.00;;;18.46;41.79
9746;BME280;4912;50.836;12.958;2024-02-26T08:50:28;96417.53;;;18.84;40.50
9746;BME280;4912;50.836;12.958;2024-02-26T08:52:59;96411.72;;;18.82;40.72
9746;BME280;4912;50.836;12.958;2024-02-26T08:55:36;96416.06;;;18.91;40.79
9746;BME280;4912;50.836;12.958;2024-02-26T08:58:07;96408.78;;;18.95;40.24
9746;BME280;4912;50.836;12.958;2024-02-26T09:00:38;96407.63;;;18.98;40.91
9746;BME280;4912;50.836;12.958;2024-02-26T09:03:08;96412.66;;;18.77;41.25
9746;BME280;4912;50.836;12.958;2024-02-26T09:05:39;96400.69;;;18.76;40.62
9746;BME280;4912;50.836;12.958;2024-02-26T09:08:10;96398.66;;;18.33;41.26
9746;BME280;4912;50.836;12.958;2024-02-26T09:10:43;96409.38;;;18.42;41.46
9746;BME280;4912;50.836;12.958;2024-02-26T09:13:13;96412.50;;;18.39;42.01
9746;BME280;4912;50.836;12.958;2024-02-26T09:15:45;96415.03;;;18.58;40.93
9746;BME280;4912;50.836;12.958;2024-02-26T09:18:16;96416.56;;;18.66;41.23
9746;BME280;4912;50.836;12.958;2024-02-26T09:20:47;96416.09;;;19.13;40.48
9746;BME280;4912;50.836;12.958;2024-02-26T09:23:20;96421.13;;;19.38;39.89
9746;BME280;4912;50.836;12.958;2024-02-26T09:25:53;96426.38;;;19.41;39.87
9746;BME280;4912;50.836;12.958;2024-02-26T09:28:24;96433.28;;;19.17;39.52
9746;BME280;4912;50.836;12.958;2024-02-26T09:30:55;96422.78;;;19.10;40.45
9746;BME280;4912;50.836;12.958;2024-02-26T09:33:25;96423.16;;;19.14;40.24
9746;BME280;4912;50.836;12.958;2024-02-26T09:35:56;96418.50;;;19.17;39.72
9746;BME280;4912;50.836;12.958;2024-02-26T09:38:27;96417.97;;;19.49;39.66
9746;BME280;4912;50.836;12.958;2024-02-26T09:41:21;96421.13;;;19.30;39.46
9746;BME280;4912;50.836;12.958;2024-02-26T09:43:56;96427.09;;;19.27;40.21
9746;BME280;4912;50.836;12.958;2024-02-26T09:46:27;96437.72;;;18.90;40.33
9746;BME280;4912;50.836;12.958;2024-02-26T09:49:00;96431.00;;;18.93;40.66
9746;BME280;4912;50.836;12.958;2024-02-26T09:51:36;96440.72;;;19.00;40.30
9746;BME280;4912;50.836;12.958;2024-02-26T09:54:09;96429.72;;;19.25;40.08
9746;BME280;4912;50.836;12.958;2024-02-26T09:56:49;96430.31;;;19.53;39.20
9746;BME280;4912;50.836;12.958;2024-02-26T09:59:37;96435.91;;;19.23;40.71
9746;BME280;4912;50.836;12.958;2024-02-26T10:02:12;96443.53;;;19.15;40.48
9746;BME280;4912;50.836;12.958;2024-02-26T10:04:43;96433.28;;;19.33;40.53
9746;BME280;4912;50.836;12.958;2024-02-26T10:07:18;96438.69;;;19.15;41.29
9746;BME280;4912;50.836;12.958;2024-02-26T10:09:50;96433.28;;;19.33;40.33
9746;BME280;4912;50.836;12.958;2024-02-26T10:12:24;96425.41;;;19.39;39.89
9746;BME280;4912;50.836;12.958;2024-02-26T10:14:55;96432.91;;;19.29;40.27
9746;BME280;4912;50.836;12.958;2024-02-26T10:17:26;96429.19;;;19.64;40.71
9746;BME280;4912;50.836;12.958;2024-02-26T10:20:11;96439.03;;;20.11;39.65
9746;BME280;4912;50.836;12.958;2024-02-26T10:22:44;96439.00;;;20.73;39.72
9746;BME280;4912;50.836;12.958;2024-02-26T10:25:15;96442.13;;;20.85;39.13
9746;BME280;4912;50.836;12.958;2024-02-26T10:27:49;96444.00;;;20.82;38.75
9746;BME280;4912;50.836;12.958;2024-02-26T10:30:21;96442.75;;;20.68;38.16
9746;BME280;4912;50.836;12.958;2024-02-26T10:32:56;96451.72;;;20.74;37.54
9746;BME280;4912;50.836;12.958;2024-02-26T10:35:27;96456.75;;;20.83;37.52
9746;BME280;4912;50.836;12.958;2024-02-26T10:37:59;96460.03;;;20.65;37.93
9746;BME280;4912;50.836;12.958;2024-02-26T10:40:31;96460.22;;;20.67;37.74
9746;BME280;4912;50.836;12.958;2024-02-26T10:43:04;96454.91;;;20.78;37.10
9746;BME280;4912;50.836;12.958;2024-02-26T10:45:35;96448.97;;;20.99;36.89
9746;BME280;4912;50.836;12.958;2024-02-26T10:48:10;96446.19;;;20.59;36.58
9746;BME280;4912;50.836;12.958;2024-02-26T10:50:44;96450.00;;;20.39;36.71
9746;BME280;4912;50.836;12.958;2024-02-26T10:53:17;96447.41;;;20.33;37.22
9746;BME280;4912;50.836;12.958;2024-02-26T10:55:54;96443.50;;;20.14;37.13
9746;BME280;4912;50.836;12.958;2024-02-26T10:58:28;96447.28;;;20.01;37.47
9746;BME280;4912;50.836;12.958;2024-02-26T11:01:00;96438.31;;;20.02;37.37
9746;BME280;4912;50.836;12.958;2024-02-26T11:03:31;96449.16;;;20.06;37.93
9746;BME280;4912;50.836;12.958;2024-02-26T11:06:05;96438.31;;;19.95;37.96
9746;BME280;4912;50.836;12.958;2024-02-26T11:08:37;96446.47;;;20.23;38.52
9746;BME280;4912;50.836;12.958;2024-02-26T11:11:08;96440.84;;;20.31;38.25
9746;BME280;4912;50.836;12.958;2024-02-26T11:13:46;96445.56;;;20.13;37.70
9746;BME280;4912;50.836;12.958;2024-02-26T11:16:18;96450.09;;;19.93;38.99
9746;BME280;4912;50.836;12.958;2024-02-26T11:18:49;96441.53;;;19.69;39.31
9746;BME280;4912;50.836;12.958;2024-02-26T11:21:23;96448.28;;;19.66;40.01
9746;BME280;4912;50.836;12.958;2024-02-26T11:23:57;96442.81;;;19.68;39.45
9746;BME280;4912;50.836;12.958;2024-02-26T11:26:28;96436.66;;;19.69;39.49
9746;BME280;4912;50.836;12.958;2024-02-26T11:29:02;96432.72;;;19.87;39.41
9746;BME280;4912;50.836;12.958;2024-02-26T11:31:34;96434.00;;;20.01;38.60
9746;BME280;4912;50.836;12.958;2024-02-26T11:34:06;96446.00;;;19.87;38.43
9746;BME280;4912;50.836;12.958;2024-02-26T11:36:38;96440.78;;;19.68;38.64
9746;BME280;4912;50.836;12.958;2024-02-26T11:39:11;96442.09;;;19.37;40.10
9746;BME280;4912;50.836;12.958;2024-02-26T11:41:44;96445.78;;;19.01;40.34
9746;BME280;4912;50.836;12.958;2024-02-26T11:44:17;96457.25;;;18.67;40.94
9746;BME280;4912;50.836;12.958;2024-02-26T11:46:59;96447.97;;;18.72;41.85
9746;BME280;4912;50.836;12.958;2024-02-26T11:49:31;96453.63;;;18.52;40.58
9746;BME280;4912;50.836;12.958;2024-02-26T11:52:06;96447.09;;;18.49;41.15
9746;BME280;4912;50.836;12.958;2024-02-26T11:54:44;96455.09;;;18.37;41.67
9746;BME280;4912;50.836;12.958;2024-02-26T11:57:26;96460.06;;;18.24;41.21
9746;BME280;4912;50.836;12.958;2024-02-26T12:00:14;96456.38;;;18.00;42.28
9746;BME280;4912;50.836;12.958;2024-02-26T12:02:50;96459.97;;;17.80;42.26
9746;BME280;4912;50.836;12.958;2024-02-26T12:05:26;96462.84;;;17.67;42.43
9746;BME280;4912;50.836;12.958;2024-02-26T12:08:01;96459.56;;;17.55;43.46
9746;BME280;4912;50.836;12.958;2024-02-26T12:13:11;96459.25;;;17.38;43.94
9746;BME280;4912;50.836;12.958;2024-02-26T12:15:55;96461.44;;;17.11;43.06
9746;BME280;4912;50.836;12.958;2024-02-26T12:18:28;96456.13;;;17.21;43.71
9746;BME280;4912;50.836;12.958;2024-02-26T12:21:00;96461.31;;;17.17;43.71
9746;BME280;4912;50.836;12.958;2024-02-26T12:23:32;96467.66;;;17.17;43.80
9746;BME280;4912;50.836;12.958;2024-02-26T12:26:03;96471.13;;;16.90;43.31
9746;BME280;4912;50.836;12.958;2024-02-26T12:28:37;96469.25;;;16.71;43.77
9746;BME280;4912;50.836;12.958;2024-02-26T12:31:10;96457.00;;;16.61;44.06
9746;BME280;4912;50.836;12.958;2024-02-26T12:33:41;96468.19;;;16.48;45.03
9746;BME280;4912;50.836;12.958;2024-02-26T12:36:13;96476.38;;;16.33;44.65
9746;BME280;4912;50.836;12.958;2024-02-26T12:38:44;96479.38;;;16.22;45.10
9746;BME280;4912;50.836;12.958;2024-02-26T12:41:15;96476.72;;;16.03;45.71
9746;BME280;4912;50.836;12.958;2024-02-26T12:43:46;96476.19;;;15.91;46.65
9746;BME280;4912;50.836;12.958;2024-02-26T12:46:20;96474.25;;;15.86;46.13
9746;BME280;4912;50.836;12.958;2024-02-26T12:48:51;96468.03;;;15.80;46.55
9746;BME280;4912;50.836;12.958;2024-02-26T12:51:25;96476.81;;;15.71;46.30
9746;BME280;4912;50.836;12.958;2024-02-26T12:53:56;96469.63;;;15.76;46.69
9746;BME280;4912;50.836;12.958;2024-02-26T12:56:27;96473.41;;;15.78;47.47
9746;BME280;4912;50.836;12.958;2024-02-26T12:58:59;96477.34;;;15.70;47.29
9746;BME280;4912;50.836;12.958;2024-02-26T13:01:33;96475.22;;;15.76;46.90
9746;BME280;4912;50.836;12.958;2024-02-26T13:04:04;96482.19;;;15.95;46.82
9746;BME280;4912;50.836;12.958;2024-02-26T13:06:35;96477.56;;;16.24;46.32
9746;BME280;4912;50.836;12.958;2024-02-26T13:09:06;96496.13;;;16.48;45.63
9746;BME280;4912;50.836;12.958;2024-02-26T13:11:39;96488.78;;;16.71;46.19
9746;BME280;4912;50.836;12.958;2024-02-26T13:14:19;96492.78;;;16.63;45.68
9746;BME280;4912;50.836;12.958;2024-02-26T13:16:57;96501.03;;;16.55;45.31
9746;BME280;4912;50.836;12.958;2024-02-26T13:19:28;96509.84;;;16.33;46.23
9746;BME280;4912;50.836;12.958;2024-02-26T13:22:04;96514.50;;;16.30;46.36
9746;BME280;4912;50.836;12.958;2024-02-26T13:24:36;96518.34;;;16.27;46.83
9746;BME280;4912;50.836;12.958;2024-02-26T13:27:07;96523.28;;;16.21;46.89
9746;BME280;4912;50.836;12.958;2024-02-26T13:29:38;96515.69;;;15.95;46.52
9746;BME280;4912;50.836;12.958;2024-02-26T13:32:11;96517.50;;;16.06;46.87
9746;BME280;4912;50.836;12.958;2024-02-26T13:34:42;96525.97;;;16.01;47.54
9746;BME280;4912;50.836;12.958;2024-02-26T13:37:13;96533.91;;;15.96;48.07
9746;BME280;4912;50.836;12.958;2024-02-26T13:39:44;96527.50;;;16.02;48.55
9746;BME280;4912;50.836;12.958;2024-02-26T13:42:15;96530.69;;;16.06;48.62
9746;BME280;4912;50.836;12.958;2024-02-26T13:44:45;96529.81;;;15.97;49.05
9746;BME280;4912;50.836;12.958;2024-02-26T13:47:19;96526.19;;;15.89;48.56